Observations for ROME FIUMICINO, Italy (LIRF)

LIRF 181420Z 25009KT CAVOK 19/08 Q1021 NOSIG
LIRF 181350Z 23009KT CAVOK 20/07 Q1021 NOSIG
LIRF 181320Z 24008KT CAVOK 20/10 Q1021 NOSIG
LIRF 181250Z 24009KT 9999 FEW030 20/09 Q1021 NOSIG  
LIRF 181220Z 24008KT 210V270 9999 FEW030 20/09 Q1021 NOSIG  
LIRF 181150Z 25009KT 9999 FEW030 20/08 Q1021 NOSIG  
LIRF 181120Z 22007KT 160V240 9999 FEW030 20/08 Q1021 NOSIG  
LIRF 181050Z 21007KT 170V240 9999 FEW030 20/09 Q1022 NOSIG  
LIRF 181020Z 22006KT 190V270 9999 FEW030 20/09 Q1022 NOSIG  
LIRF 180950Z 18004KT 130V240 CAVOK 20/09 Q1022 NOSIG
LIRF 180920Z 20004KT 150V300 CAVOK 19/11 Q1021 NOSIG
LIRF 180850Z VRB03KT CAVOK 19/10 Q1022 NOSIG
LIRF 180820Z 11004KT 080V150 CAVOK 17/10 Q1022 NOSIG
LIRF 180750Z 08004KT 040V120 9000 NSC 16/10 Q1022 NOSIG 
LIRF 180720Z 06005KT 9000 MIFG NSC 15/10 Q1022 NOSIG
LIRF 180650Z 06005KT 9000 MIFG NSC 14/10 Q1021 NOSIG
LIRF 180620Z 04004KT 7000 R16L/P1500N R16R/1400D R25/P1500N R34R/P1500N MIFG NSC 12/10 Q1021 NOSIG  
LIRF 180550Z 06002KT 7000 MIFG NSC 10/09 Q1021 NOSIG
LIRF 180520Z 07003KT 5000 BR NSC 09/08 Q1021 NOSIG  
LIRF 180450Z 04004KT 7000 NSC 08/07 Q1021 NOSIG 
LIRF 180420Z 03003KT 8000 R16L/1400U R16R/P1500N R25/P1500N R34R/P1500N NSC 06/06 Q1021 NOSIG   
LIRF 180350Z 03003KT CAVOK 07/07 Q1021 NOSIG
LIRF 180320Z 02002KT CAVOK 07/07 Q1021 NOSIG
LIRF 180250Z 03003KT CAVOK 07/07 Q1021 NOSIG
LIRF 180220Z 09003KT CAVOK 08/08 Q1021 NOSIG
LIRF 180150Z 08004KT CAVOK 08/08 Q1021 NOSIG
LIRF 180120Z 09003KT CAVOK 08/08 Q1021 NOSIG
LIRF 180050Z 35003KT CAVOK 08/07 Q1021 NOSIG
LIRF 180020Z 36002KT CAVOK 09/08 Q1021 NOSIG
LIRF 172350Z 04003KT CAVOK 09/09 Q1021 NOSIG
LIRF 172320Z VRB02KT CAVOK 10/09 Q1021 NOSIG
LIRF 172250Z VRB01KT CAVOK 10/10 Q1021 NOSIG
LIRF 172220Z 14003KT 110V200 CAVOK 11/10 Q1021 NOSIG
LIRF 172150Z 12004KT 100V180 CAVOK 12/10 Q1020 NOSIG
LIRF 172120Z 15004KT CAVOK 12/11 Q1020 NOSIG
LIRF 172050Z VRB01KT CAVOK 12/10 Q1020 NOSIG
LIRF 172020Z 00000KT CAVOK 12/11 Q1020 NOSIG
LIRF 171950Z 30002KT CAVOK 13/12 Q1020 NOSIG
LIRF 171920Z 29004KT CAVOK 14/12 Q1020 NOSIG
LIRF 171850Z 30005KT CAVOK 14/12 Q1020 NOSIG
LIRF 171820Z 28004KT CAVOK 14/11 Q1019 NOSIG
LIRF 171750Z 29006KT CAVOK 14/11 Q1019 NOSIG
LIRF 171720Z 29008KT CAVOK 15/11 Q1019 NOSIG
LIRF 171650Z 29009KT CAVOK 16/10 Q1019 NOSIG
LIRF 171620Z 28010KT CAVOK 16/10 Q1019 NOSIG
LIRF 171550Z 28010KT CAVOK 16/11 Q1019 NOSIG
LIRF 171520Z 28009KT 250V310 CAVOK 17/12 Q1019 NOSIG
LIRF 171450Z 27010KT CAVOK 17/12 Q1019 NOSIG
LIRF 171420Z 28010KT CAVOK 16/12 Q1019 NOSIG
LIRF 171350Z 27012KT CAVOK 16/12 Q1019 NOSIG